Oxford, NC

6:53 PM EST on January 27, 2015 (GMT -0500)
Person County | Change Station
CLOSE
Current Station
Airport
Location: Roxboro,
Elevation: 610 ft
Nearby Weather Stations

Elev 610 ft 36.28 °N, 78.98 °W | Updated 18 minutes ago

Clear
Clear
37 °F
Feels Like 35 °F
N
4
Wind Variable Wind from NW

Today
High -- | Low -- °F
--% Chance of Precip.
Yesterday
High -- | Low -- °F
Precip. -- in
7:19 AM 5:35 PM
First Quarter, 59% visible
Pressure 29.89 in
Visibility 10.0 miles
Clouds Clear
Windchill 35 °F
Dew Point 10 °F
Humidity 33%
Rainfall 0.01 in
Snow Depth Not available.
UV 0 out of 12
Pollen 1.10 out of 12
Air Quality Not available.
Flu Activity Not available.
METAR KTDF 272335Z AUTO 32003KT 10SM CLR 03/M12 A2989 RMK AO2 LTG DSNT NE

More Conditions Fewer Conditions

Pressure 29.89 in
Visibility 10.0 miles
Clouds Clear
Windchill 35 °F
Dew Point 10 °F
Humidity 33%
Rainfall 0.01 in
Snow Depth Not available.
UV 0 out of 12
Pollen 1.10 out of 12
Air Quality Not available.
Flu Activity Not available.
METAR KTDF 272335Z AUTO 32003KT 10SM CLR 03/M12 A2989 RMK AO2 LTG DSNT NE

More Conditions Fewer Conditions

10-Day Weather Forecast

Almanac

Astronomy

Jan. 27, 2015 Rise Set
Actual Time
Civil Twilight
Nautical Twilight
Astronomical Twilight
Moon
Length of Visible Light
Length of Day
Tomorrow will be .
, % of the Moon is Illuminated

Today's Extremes

State Highs State Lows

Community

WunderPhotos

Upload Photos

1,790,986 photos uploaded!

WunderBlogs® & News

Nearby

Air Quality

  Air Quality AQ Index Pollutant
Not available.

Snow Depth

Station Depth Elevation

Earthquake Activity

City Distance Mag. Time & Date
Minimum magnitude displayed is 2.5.

Coastal Water Temperatures

Place Temperature

Nearby Weather Stations